sensor_id;sensor_type;location;lat;lon;timestamp;temperature;humidity
28075;DHT22;15385;51.088;6.572;2023-04-25T00:02:26;9.60;99.90
28075;DHT22;15385;51.088;6.572;2023-04-25T00:04:58;9.60;99.90
28075;DHT22;15385;51.088;6.572;2023-04-25T00:07:29;9.60;99.90
28075;DHT22;15385;51.088;6.572;2023-04-25T00:09:59;9.60;99.90
28075;DHT22;15385;51.088;6.572;2023-04-25T00:12:30;9.60;99.90
28075;DHT22;15385;51.088;6.572;2023-04-25T00:15:01;9.60;99.90
28075;DHT22;15385;51.088;6.572;2023-04-25T00:17:31;9.70;99.90
28075;DHT22;15385;51.088;6.572;2023-04-25T00:20:02;9.70;99.90
28075;DHT22;15385;51.088;6.572;2023-04-25T00:22:35;9.60;99.90
28075;DHT22;15385;51.088;6.572;2023-04-25T00:25:07;9.60;99.90
28075;DHT22;15385;51.088;6.572;2023-04-25T00:27:38;9.60;99.90
28075;DHT22;15385;51.088;6.572;2023-04-25T00:30:09;9.50;99.90
28075;DHT22;15385;51.088;6.572;2023-04-25T00:32:40;9.50;99.90
28075;DHT22;15385;51.088;6.572;2023-04-25T00:35:11;9.30;99.90
28075;DHT22;15385;51.088;6.572;2023-04-25T00:37:41;9.30;99.90
28075;DHT22;15385;51.088;6.572;2023-04-25T00:40:12;9.30;99.90
28075;DHT22;15385;51.088;6.572;2023-04-25T00:42:44;9.30;99.90
28075;DHT22;15385;51.088;6.572;2023-04-25T00:45:15;9.30;99.90
28075;DHT22;15385;51.088;6.572;2023-04-25T00:47:46;9.20;99.90
28075;DHT22;15385;51.088;6.572;2023-04-25T00:50:17;9.30;99.90
28075;DHT22;15385;51.088;6.572;2023-04-25T00:52:48;9.20;99.90
28075;DHT22;15385;51.088;6.572;2023-04-25T00:55:19;9.30;99.90
28075;DHT22;15385;51.088;6.572;2023-04-25T00:57:50;9.30;99.90
28075;DHT22;15385;51.088;6.572;2023-04-25T01:00:20;9.50;99.90
28075;DHT22;15385;51.088;6.572;2023-04-25T01:02:52;9.40;99.90
28075;DHT22;15385;51.088;6.572;2023-04-25T01:05:23;9.40;99.90
28075;DHT22;15385;51.088;6.572;2023-04-25T01:07:53;9.40;99.90
28075;DHT22;15385;51.088;6.572;2023-04-25T01:10:24;9.40;99.90
28075;DHT22;15385;51.088;6.572;2023-04-25T01:12:54;9.40;99.90
28075;DHT22;15385;51.088;6.572;2023-04-25T01:15:25;9.50;99.90
28075;DHT22;15385;51.088;6.572;2023-04-25T01:17:57;9.50;99.90
28075;DHT22;15385;51.088;6.572;2023-04-25T01:20:28;9.40;99.90
28075;DHT22;15385;51.088;6.572;2023-04-25T01:23:00;9.30;99.90
28075;DHT22;15385;51.088;6.572;2023-04-25T01:25:31;9.40;99.90
28075;DHT22;15385;51.088;6.572;2023-04-25T01:28:02;9.40;99.90
28075;DHT22;15385;51.088;6.572;2023-04-25T01:30:33;9.40;99.90
28075;DHT22;15385;51.088;6.572;2023-04-25T01:33:04;9.40;99.90
28075;DHT22;15385;51.088;6.572;2023-04-25T01:35:36;9.50;99.90
28075;DHT22;15385;51.088;6.572;2023-04-25T01:38:06;9.50;99.90
28075;DHT22;15385;51.088;6.572;2023-04-25T01:40:39;9.50;99.90
28075;DHT22;15385;51.088;6.572;2023-04-25T01:43:10;9.50;99.90
28075;DHT22;15385;51.088;6.572;2023-04-25T01:45:42;9.50;99.90
28075;DHT22;15385;51.088;6.572;2023-04-25T01:48:13;9.50;99.90
28075;DHT22;15385;51.088;6.572;2023-04-25T01:50:45;9.50;99.90
28075;DHT22;15385;51.088;6.572;2023-04-25T01:53:16;9.50;99.90
28075;DHT22;15385;51.088;6.572;2023-04-25T01:55:46;9.50;99.90
28075;DHT22;15385;51.088;6.572;2023-04-25T01:58:17;9.50;99.90
28075;DHT22;15385;51.088;6.572;2023-04-25T02:00:47;9.50;99.90
28075;DHT22;15385;51.088;6.572;2023-04-25T02:03:18;9.60;99.90
28075;DHT22;15385;51.088;6.572;2023-04-25T02:05:49;9.50;99.90
28075;DHT22;15385;51.088;6.572;2023-04-25T02:08:19;9.60;99.90
28075;DHT22;15385;51.088;6.572;2023-04-25T02:10:50;9.70;99.90
28075;DHT22;15385;51.088;6.572;2023-04-25T02:13:20;9.60;99.90
28075;DHT22;15385;51.088;6.572;2023-04-25T02:15:51;9.60;99.90
28075;DHT22;15385;51.088;6.572;2023-04-25T02:18:22;9.60;99.90
28075;DHT22;15385;51.088;6.572;2023-04-25T02:20:52;9.60;99.90
28075;DHT22;15385;51.088;6.572;2023-04-25T02:23:23;9.70;99.90
28075;DHT22;15385;51.088;6.572;2023-04-25T02:25:53;9.70;99.90
28075;DHT22;15385;51.088;6.572;2023-04-25T02:28:25;9.70;99.90
28075;DHT22;15385;51.088;6.572;2023-04-25T02:30:56;9.70;99.90
28075;DHT22;15385;51.088;6.572;2023-04-25T02:33:26;9.70;99.90
28075;DHT22;15385;51.088;6.572;2023-04-25T02:35:57;9.70;99.90
28075;DHT22;15385;51.088;6.572;2023-04-25T02:38:28;9.70;99.90
28075;DHT22;15385;51.088;6.572;2023-04-25T02:40:58;9.70;99.90
28075;DHT22;15385;51.088;6.572;2023-04-25T02:43:29;9.70;99.90
28075;DHT22;15385;51.088;6.572;2023-04-25T02:46:00;9.70;99.90
28075;DHT22;15385;51.088;6.572;2023-04-25T02:48:30;9.70;99.90
28075;DHT22;15385;51.088;6.572;2023-04-25T02:51:01;9.50;99.90
28075;DHT22;15385;51.088;6.572;2023-04-25T02:53:31;9.50;99.90
28075;DHT22;15385;51.088;6.572;2023-04-25T02:56:02;9.40;99.90
28075;DHT22;15385;51.088;6.572;2023-04-25T02:58:33;9.40;99.90
28075;DHT22;15385;51.088;6.572;2023-04-25T03:01:03;9.30;99.90
28075;DHT22;15385;51.088;6.572;2023-04-25T03:03:34;9.40;99.90
28075;DHT22;15385;51.088;6.572;2023-04-25T03:06:04;9.40;99.90
28075;DHT22;15385;51.088;6.572;2023-04-25T03:08:35;9.40;99.90
28075;DHT22;15385;51.088;6.572;2023-04-25T03:11:06;9.40;99.90
28075;DHT22;15385;51.088;6.572;2023-04-25T03:13:36;9.40;99.90
28075;DHT22;15385;51.088;6.572;2023-04-25T03:16:07;9.50;99.90
28075;DHT22;15385;51.088;6.572;2023-04-25T03:18:37;9.50;99.90
28075;DHT22;15385;51.088;6.572;2023-04-25T03:21:08;9.50;99.90
28075;DHT22;15385;51.088;6.572;2023-04-25T03:23:39;9.40;99.90
28075;DHT22;15385;51.088;6.572;2023-04-25T03:26:09;9.30;99.90
28075;DHT22;15385;51.088;6.572;2023-04-25T03:28:41;9.30;99.90
28075;DHT22;15385;51.088;6.572;2023-04-25T03:31:12;9.30;99.90
28075;DHT22;15385;51.088;6.572;2023-04-25T03:33:42;9.30;99.90
28075;DHT22;15385;51.088;6.572;2023-04-25T03:36:13;9.30;99.90
28075;DHT22;15385;51.088;6.572;2023-04-25T03:38:43;9.40;99.90
28075;DHT22;15385;51.088;6.572;2023-04-25T03:41:14;9.40;99.90
28075;DHT22;15385;51.088;6.572;2023-04-25T03:43:44;9.50;99.90
28075;DHT22;15385;51.088;6.572;2023-04-25T03:46:15;9.50;99.90
28075;DHT22;15385;51.088;6.572;2023-04-25T03:48:46;9.50;99.90
28075;DHT22;15385;51.088;6.572;2023-04-25T03:51:16;9.50;99.90
28075;DHT22;15385;51.088;6.572;2023-04-25T03:53:47;9.40;99.90
28075;DHT22;15385;51.088;6.572;2023-04-25T03:56:18;9.40;99.90
28075;DHT22;15385;51.088;6.572;2023-04-25T03:58:49;9.40;99.90
28075;DHT22;15385;51.088;6.572;2023-04-25T04:01:19;9.30;99.90
28075;DHT22;15385;51.088;6.572;2023-04-25T04:03:50;9.30;99.90
28075;DHT22;15385;51.088;6.572;2023-04-25T04:06:21;9.30;99.90
28075;DHT22;15385;51.088;6.572;2023-04-25T04:08:51;9.30;99.90
28075;DHT22;15385;51.088;6.572;2023-04-25T04:11:22;9.30;99.90
28075;DHT22;15385;51.088;6.572;2023-04-25T04:13:52;9.20;99.90
28075;DHT22;15385;51.088;6.572;2023-04-25T04:16:23;9.20;99.90
28075;DHT22;15385;51.088;6.572;2023-04-25T04:18:53;9.20;99.90
28075;DHT22;15385;51.088;6.572;2023-04-25T04:21:24;9.30;99.90
28075;DHT22;15385;51.088;6.572;2023-04-25T04:23:55;9.30;99.90
28075;DHT22;15385;51.088;6.572;2023-04-25T04:26:26;9.40;99.90
28075;DHT22;15385;51.088;6.572;2023-04-25T04:28:57;9.40;99.90
28075;DHT22;15385;51.088;6.572;2023-04-25T04:31:29;9.40;99.90
28075;DHT22;15385;51.088;6.572;2023-04-25T04:34:00;9.40;99.90
28075;DHT22;15385;51.088;6.572;2023-04-25T04:36:31;9.40;99.90
28075;DHT22;15385;51.088;6.572;2023-04-25T04:39:02;9.50;99.90
28075;DHT22;15385;51.088;6.572;2023-04-25T04:41:33;9.50;99.90
28075;DHT22;15385;51.088;6.572;2023-04-25T04:44:04;9.50;99.90
28075;DHT22;15385;51.088;6.572;2023-04-25T04:46:36;9.50;99.90
28075;DHT22;15385;51.088;6.572;2023-04-25T04:49:12;9.50;99.90
28075;DHT22;15385;51.088;6.572;2023-04-25T04:51:44;9.50;99.90
28075;DHT22;15385;51.088;6.572;2023-04-25T04:54:14;9.60;99.90
28075;DHT22;15385;51.088;6.572;2023-04-25T04:56:45;9.60;99.90
28075;DHT22;15385;51.088;6.572;2023-04-25T04:59:16;9.50;99.90
28075;DHT22;15385;51.088;6.572;2023-04-25T05:01:46;9.50;99.90
28075;DHT22;15385;51.088;6.572;2023-04-25T05:04:17;9.50;99.90
28075;DHT22;15385;51.088;6.572;2023-04-25T05:06:47;9.50;99.90
28075;DHT22;15385;51.088;6.572;2023-04-25T05:09:18;9.40;99.90
28075;DHT22;15385;51.088;6.572;2023-04-25T05:11:49;9.30;99.90
28075;DHT22;15385;51.088;6.572;2023-04-25T05:14:20;9.30;99.90
28075;DHT22;15385;51.088;6.572;2023-04-25T05:16:52;9.30;99.90
28075;DHT22;15385;51.088;6.572;2023-04-25T05:19:22;9.40;99.90
28075;DHT22;15385;51.088;6.572;2023-04-25T05:21:53;9.50;99.90
28075;DHT22;15385;51.088;6.572;2023-04-25T05:24:24;9.50;99.90
28075;DHT22;15385;51.088;6.572;2023-04-25T05:26:55;9.50;99.90
28075;DHT22;15385;51.088;6.572;2023-04-25T05:29:25;9.40;99.90
28075;DHT22;15385;51.088;6.572;2023-04-25T05:31:56;9.50;99.90
28075;DHT22;15385;51.088;6.572;2023-04-25T05:34:26;9.50;99.90
28075;DHT22;15385;51.088;6.572;2023-04-25T05:36:57;9.40;99.90
28075;DHT22;15385;51.088;6.572;2023-04-25T05:39:28;9.40;99.90
28075;DHT22;15385;51.088;6.572;2023-04-25T05:41:58;9.50;99.90
28075;DHT22;15385;51.088;6.572;2023-04-25T05:44:30;9.50;99.90
28075;DHT22;15385;51.088;6.572;2023-04-25T05:47:00;9.50;99.90
28075;DHT22;15385;51.088;6.572;2023-04-25T05:49:31;9.40;99.90
28075;DHT22;15385;51.088;6.572;2023-04-25T05:52:01;9.40;99.90
28075;DHT22;15385;51.088;6.572;2023-04-25T05:54:32;9.40;99.90
28075;DHT22;15385;51.088;6.572;2023-04-25T05:57:03;9.50;99.90
28075;DHT22;15385;51.088;6.572;2023-04-25T05:59:33;9.60;99.90
28075;DHT22;15385;51.088;6.572;2023-04-25T06:02:04;9.70;99.90
28075;DHT22;15385;51.088;6.572;2023-04-25T06:04:34;9.60;99.90
28075;DHT22;15385;51.088;6.572;2023-04-25T06:07:05;9.50;99.90
28075;DHT22;15385;51.088;6.572;2023-04-25T06:09:36;9.60;99.90
28075;DHT22;15385;51.088;6.572;2023-04-25T06:12:07;9.70;99.90
28075;DHT22;15385;51.088;6.572;2023-04-25T06:14:37;9.80;99.90
28075;DHT22;15385;51.088;6.572;2023-04-25T06:17:08;9.90;99.90
28075;DHT22;15385;51.088;6.572;2023-04-25T06:19:39;10.00;99.90
28075;DHT22;15385;51.088;6.572;2023-04-25T06:22:10;10.00;99.90
28075;DHT22;15385;51.088;6.572;2023-04-25T06:24:40;10.10;99.90
28075;DHT22;15385;51.088;6.572;2023-04-25T06:27:11;10.10;99.90
28075;DHT22;15385;51.088;6.572;2023-04-25T06:29:41;10.10;99.90
28075;DHT22;15385;51.088;6.572;2023-04-25T06:32:12;10.10;99.90
28075;DHT22;15385;51.088;6.572;2023-04-25T06:34:43;10.10;99.90
28075;DHT22;15385;51.088;6.572;2023-04-25T06:37:13;10.10;99.90
28075;DHT22;15385;51.088;6.572;2023-04-25T06:39:44;10.00;99.90
28075;DHT22;15385;51.088;6.572;2023-04-25T06:42:14;10.10;99.90
28075;DHT22;15385;51.088;6.572;2023-04-25T06:44:45;10.20;99.90
28075;DHT22;15385;51.088;6.572;2023-04-25T06:47:15;10.20;99.90
28075;DHT22;15385;51.088;6.572;2023-04-25T06:49:46;10.30;99.90
28075;DHT22;15385;51.088;6.572;2023-04-25T06:52:17;10.30;99.90
28075;DHT22;15385;51.088;6.572;2023-04-25T06:54:48;10.30;99.90
28075;DHT22;15385;51.088;6.572;2023-04-25T06:57:18;10.30;99.90
28075;DHT22;15385;51.088;6.572;2023-04-25T06:59:49;10.30;99.90
28075;DHT22;15385;51.088;6.572;2023-04-25T07:02:20;10.20;99.90
28075;DHT22;15385;51.088;6.572;2023-04-25T07:04:51;10.20;99.90
28075;DHT22;15385;51.088;6.572;2023-04-25T07:07:22;10.30;99.90
28075;DHT22;15385;51.088;6.572;2023-04-25T07:09:53;10.40;99.90
28075;DHT22;15385;51.088;6.572;2023-04-25T07:12:23;10.50;99.90
28075;DHT22;15385;51.088;6.572;2023-04-25T07:14:54;10.60;99.90
28075;DHT22;15385;51.088;6.572;2023-04-25T07:17:24;10.60;99.90
28075;DHT22;15385;51.088;6.572;2023-04-25T07:19:55;10.50;99.90
28075;DHT22;15385;51.088;6.572;2023-04-25T07:22:25;10.50;99.90
28075;DHT22;15385;51.088;6.572;2023-04-25T07:24:56;10.50;99.90
28075;DHT22;15385;51.088;6.572;2023-04-25T07:27:27;10.50;99.90
28075;DHT22;15385;51.088;6.572;2023-04-25T07:29:58;10.50;99.90
28075;DHT22;15385;51.088;6.572;2023-04-25T07:32:28;10.60;99.90
28075;DHT22;15385;51.088;6.572;2023-04-25T07:34:59;10.60;99.90
28075;DHT22;15385;51.088;6.572;2023-04-25T07:37:30;10.70;99.90
28075;DHT22;15385;51.088;6.572;2023-04-25T07:40:04;10.80;99.90
28075;DHT22;15385;51.088;6.572;2023-04-25T07:42:35;10.80;99.90
28075;DHT22;15385;51.088;6.572;2023-04-25T07:45:06;10.80;99.90
28075;DHT22;15385;51.088;6.572;2023-04-25T07:47:37;10.90;99.90
28075;DHT22;15385;51.088;6.572;2023-04-25T07:50:09;11.10;99.90
28075;DHT22;15385;51.088;6.572;2023-04-25T07:52:40;11.20;99.90
28075;DHT22;15385;51.088;6.572;2023-04-25T07:55:11;11.20;99.90
28075;DHT22;15385;51.088;6.572;2023-04-25T07:57:41;11.30;99.90
28075;DHT22;15385;51.088;6.572;2023-04-25T08:00:12;11.40;99.90
28075;DHT22;15385;51.088;6.572;2023-04-25T08:02:43;11.60;99.90
28075;DHT22;15385;51.088;6.572;2023-04-25T08:05:14;11.70;99.90
28075;DHT22;15385;51.088;6.572;2023-04-25T08:07:45;11.90;99.90
28075;DHT22;15385;51.088;6.572;2023-04-25T08:10:16;11.90;99.90
28075;DHT22;15385;51.088;6.572;2023-04-25T08:12:47;11.90;99.90
28075;DHT22;15385;51.088;6.572;2023-04-25T08:15:17;11.90;99.90
28075;DHT22;15385;51.088;6.572;2023-04-25T08:17:48;12.00;99.90
28075;DHT22;15385;51.088;6.572;2023-04-25T08:20:18;12.10;99.90
28075;DHT22;15385;51.088;6.572;2023-04-25T08:22:49;12.20;99.90
28075;DHT22;15385;51.088;6.572;2023-04-25T08:25:20;12.20;99.90
28075;DHT22;15385;51.088;6.572;2023-04-25T08:27:50;12.20;99.90
28075;DHT22;15385;51.088;6.572;2023-04-25T08:30:21;12.20;99.90
28075;DHT22;15385;51.088;6.572;2023-04-25T08:32:51;11.90;99.90
28075;DHT22;15385;51.088;6.572;2023-04-25T08:35:22;11.80;99.90
28075;DHT22;15385;51.088;6.572;2023-04-25T08:37:53;11.80;99.90
28075;DHT22;15385;51.088;6.572;2023-04-25T08:40:27;11.80;99.90
28075;DHT22;15385;51.088;6.572;2023-04-25T08:43:00;11.80;99.90
28075;DHT22;15385;51.088;6.572;2023-04-25T08:45:33;11.80;99.90
28075;DHT22;15385;51.088;6.572;2023-04-25T08:48:06;12.00;99.90
28075;DHT22;15385;51.088;6.572;2023-04-25T08:50:40;12.10;99.90
28075;DHT22;15385;51.088;6.572;2023-04-25T08:53:15;12.20;99.90
28075;DHT22;15385;51.088;6.572;2023-04-25T08:55:48;12.30;99.90
28075;DHT22;15385;51.088;6.572;2023-04-25T08:58:20;12.30;99.90
28075;DHT22;15385;51.088;6.572;2023-04-25T09:00:52;12.00;99.90
28075;DHT22;15385;51.088;6.572;2023-04-25T09:03:23;11.90;99.90
28075;DHT22;15385;51.088;6.572;2023-04-25T09:05:54;11.90;99.90
28075;DHT22;15385;51.088;6.572;2023-04-25T09:08:25;11.90;99.90
28075;DHT22;15385;51.088;6.572;2023-04-25T09:10:56;12.20;99.90
28075;DHT22;15385;51.088;6.572;2023-04-25T09:13:28;12.30;99.90
28075;DHT22;15385;51.088;6.572;2023-04-25T09:15:59;12.70;99.90
28075;DHT22;15385;51.088;6.572;2023-04-25T09:18:34;12.80;99.90
28075;DHT22;15385;51.088;6.572;2023-04-25T09:21:09;12.80;99.90
28075;DHT22;15385;51.088;6.572;2023-04-25T09:23:47;12.80;99.90
28075;DHT22;15385;51.088;6.572;2023-04-25T09:26:20;12.70;99.90
28075;DHT22;15385;51.088;6.572;2023-04-25T09:29:05;12.50;99.90
28075;DHT22;15385;51.088;6.572;2023-04-25T09:31:37;12.20;99.90
28075;DHT22;15385;51.088;6.572;2023-04-25T09:34:07;12.00;99.90
28075;DHT22;15385;51.088;6.572;2023-04-25T09:36:40;12.00;99.90
28075;DHT22;15385;51.088;6.572;2023-04-25T09:39:12;12.10;99.90
28075;DHT22;15385;51.088;6.572;2023-04-25T09:41:45;12.40;99.90
28075;DHT22;15385;51.088;6.572;2023-04-25T09:44:23;12.60;99.90
28075;DHT22;15385;51.088;6.572;2023-04-25T09:46:54;12.70;99.90
28075;DHT22;15385;51.088;6.572;2023-04-25T09:49:25;12.80;99.90
28075;DHT22;15385;51.088;6.572;2023-04-25T09:51:58;12.80;99.90
28075;DHT22;15385;51.088;6.572;2023-04-25T09:54:29;12.60;99.90
28075;DHT22;15385;51.088;6.572;2023-04-25T09:57:16;12.40;99.90
28075;DHT22;15385;51.088;6.572;2023-04-25T09:59:54;12.60;99.90
28075;DHT22;15385;51.088;6.572;2023-04-25T10:02:27;13.20;99.90
28075;DHT22;15385;51.088;6.572;2023-04-25T10:04:58;13.80;99.90
28075;DHT22;15385;51.088;6.572;2023-04-25T10:07:31;14.10;99.90
28075;DHT22;15385;51.088;6.572;2023-04-25T10:10:04;14.20;99.90
28075;DHT22;15385;51.088;6.572;2023-04-25T10:12:36;13.90;99.90
28075;DHT22;15385;51.088;6.572;2023-04-25T10:15:08;13.50;99.90
28075;DHT22;15385;51.088;6.572;2023-04-25T10:17:39;13.30;99.90
28075;DHT22;15385;51.088;6.572;2023-04-25T10:20:10;13.10;99.90
28075;DHT22;15385;51.088;6.572;2023-04-25T10:22:43;12.90;99.90
28075;DHT22;15385;51.088;6.572;2023-04-25T10:25:14;12.70;99.90
28075;DHT22;15385;51.088;6.572;2023-04-25T10:27:45;12.60;99.90
28075;DHT22;15385;51.088;6.572;2023-04-25T10:30:16;12.50;99.90
28075;DHT22;15385;51.088;6.572;2023-04-25T10:32:47;12.40;99.90
28075;DHT22;15385;51.088;6.572;2023-04-25T10:35:26;12.40;99.90
28075;DHT22;15385;51.088;6.572;2023-04-25T10:38:09;12.40;99.90
28075;DHT22;15385;51.088;6.572;2023-04-25T10:40:40;12.40;99.90
28075;DHT22;15385;51.088;6.572;2023-04-25T10:46:15;13.00;99.90
28075;DHT22;15385;51.088;6.572;2023-04-25T10:48:51;13.30;99.90
28075;DHT22;15385;51.088;6.572;2023-04-25T10:56:37;13.00;99.90
28075;DHT22;15385;51.088;6.572;2023-04-25T10:59:17;13.00;99.90
28075;DHT22;15385;51.088;6.572;2023-04-25T11:01:52;12.90;99.90
28075;DHT22;15385;51.088;6.572;2023-04-25T11:04:33;12.80;99.90
28075;DHT22;15385;51.088;6.572;2023-04-25T11:07:29;12.80;99.90
28075;DHT22;15385;51.088;6.572;2023-04-25T11:10:04;13.00;99.90
28075;DHT22;15385;51.088;6.572;2023-04-25T11:12:35;13.10;99.90
28075;DHT22;15385;51.088;6.572;2023-04-25T11:15:07;13.20;99.90
28075;DHT22;15385;51.088;6.572;2023-04-25T11:17:38;13.40;99.90
28075;DHT22;15385;51.088;6.572;2023-04-25T11:20:10;13.80;99.90
28075;DHT22;15385;51.088;6.572;2023-04-25T11:22:44;14.00;99.90
28075;DHT22;15385;51.088;6.572;2023-04-25T11:25:16;14.60;99.90
28075;DHT22;15385;51.088;6.572;2023-04-25T11:27:53;15.00;99.90
28075;DHT22;15385;51.088;6.572;2023-04-25T11:30:26;15.40;99.90
28075;DHT22;15385;51.088;6.572;2023-04-25T11:32:56;15.60;99.90
28075;DHT22;15385;51.088;6.572;2023-04-25T11:35:27;15.70;99.90
28075;DHT22;15385;51.088;6.572;2023-04-25T11:37:58;15.80;99.90
28075;DHT22;15385;51.088;6.572;2023-04-25T11:40:30;15.80;99.90
28075;DHT22;15385;51.088;6.572;2023-04-25T11:43:01;15.70;99.90
28075;DHT22;15385;51.088;6.572;2023-04-25T11:45:32;15.70;99.90
28075;DHT22;15385;51.088;6.572;2023-04-25T11:48:03;15.60;99.90
28075;DHT22;15385;51.088;6.572;2023-04-25T11:50:34;15.30;99.90
28075;DHT22;15385;51.088;6.572;2023-04-25T11:53:05;15.00;99.90
28075;DHT22;15385;51.088;6.572;2023-04-25T11:55:36;14.90;99.90
28075;DHT22;15385;51.088;6.572;2023-04-25T11:58:07;14.70;99.90
28075;DHT22;15385;51.088;6.572;2023-04-25T12:00:42;14.40;99.90
28075;DHT22;15385;51.088;6.572;2023-04-25T12:03:12;14.10;99.90
28075;DHT22;15385;51.088;6.572;2023-04-25T12:05:45;14.00;99.90
28075;DHT22;15385;51.088;6.572;2023-04-25T12:08:16;14.00;99.90
28075;DHT22;15385;51.088;6.572;2023-04-25T12:10:46;14.00;99.90
28075;DHT22;15385;51.088;6.572;2023-04-25T12:13:25;13.80;99.90
28075;DHT22;15385;51.088;6.572;2023-04-25T12:15:57;13.60;99.90
28075;DHT22;15385;51.088;6.572;2023-04-25T12:18:27;13.50;99.90
28075;DHT22;15385;51.088;6.572;2023-04-25T12:20:58;13.40;99.90
28075;DHT22;15385;51.088;6.572;2023-04-25T12:23:29;13.40;99.90
28075;DHT22;15385;51.088;6.572;2023-04-25T12:26:00;13.60;99.90
28075;DHT22;15385;51.088;6.572;2023-04-25T12:28:33;14.10;99.90
28075;DHT22;15385;51.088;6.572;2023-04-25T12:31:05;14.50;99.90
28075;DHT22;15385;51.088;6.572;2023-04-25T12:33:36;15.00;99.90
28075;DHT22;15385;51.088;6.572;2023-04-25T12:36:07;15.50;99.90
28075;DHT22;15385;51.088;6.572;2023-04-25T12:38:41;15.90;99.90
28075;DHT22;15385;51.088;6.572;2023-04-25T12:41:11;16.00;99.90
28075;DHT22;15385;51.088;6.572;2023-04-25T12:43:42;16.30;99.90
28075;DHT22;15385;51.088;6.572;2023-04-25T12:46:13;16.60;99.90
28075;DHT22;15385;51.088;6.572;2023-04-25T12:48:43;16.80;99.90
28075;DHT22;15385;51.088;6.572;2023-04-25T12:51:14;17.00;99.90
28075;DHT22;15385;51.088;6.572;2023-04-25T12:53:45;17.30;99.90
28075;DHT22;15385;51.088;6.572;2023-04-25T12:56:15;17.20;99.90
28075;DHT22;15385;51.088;6.572;2023-04-25T12:58:46;17.00;99.30
28075;DHT22;15385;51.088;6.572;2023-04-25T13:01:18;16.80;98.00
28075;DHT22;15385;51.088;6.572;2023-04-25T13:03:49;16.40;97.20
28075;DHT22;15385;51.088;6.572;2023-04-25T13:06:20;16.20;98.60
28075;DHT22;15385;51.088;6.572;2023-04-25T13:08:51;16.40;99.10
28075;DHT22;15385;51.088;6.572;2023-04-25T13:11:21;16.30;96.50
28075;DHT22;15385;51.088;6.572;2023-04-25T13:13:52;16.40;97.90
28075;DHT22;15385;51.088;6.572;2023-04-25T13:16:23;16.50;97.80
28075;DHT22;15385;51.088;6.572;2023-04-25T13:18:53;16.60;99.20
28075;DHT22;15385;51.088;6.572;2023-04-25T13:21:24;16.90;99.70
28075;DHT22;15385;51.088;6.572;2023-04-25T13:23:54;16.80;99.00
28075;DHT22;15385;51.088;6.572;2023-04-25T13:26:25;16.70;99.40
28075;DHT22;15385;51.088;6.572;2023-04-25T13:28:56;16.70;99.90
28075;DHT22;15385;51.088;6.572;2023-04-25T13:31:27;16.50;99.60
28075;DHT22;15385;51.088;6.572;2023-04-25T13:33:58;16.50;99.90
28075;DHT22;15385;51.088;6.572;2023-04-25T13:36:28;16.90;99.70
28075;DHT22;15385;51.088;6.572;2023-04-25T13:38:59;17.00;99.00
28075;DHT22;15385;51.088;6.572;2023-04-25T13:41:30;17.10;98.40
28075;DHT22;15385;51.088;6.572;2023-04-25T13:44:00;17.00;98.80
28075;DHT22;15385;51.088;6.572;2023-04-25T13:46:31;16.50;99.40
28075;DHT22;15385;51.088;6.572;2023-04-25T13:49:02;15.80;99.90
28075;DHT22;15385;51.088;6.572;2023-04-25T13:51:32;15.40;99.90
28075;DHT22;15385;51.088;6.572;2023-04-25T13:54:03;15.20;99.90
28075;DHT22;15385;51.088;6.572;2023-04-25T13:56:34;14.70;99.90
28075;DHT22;15385;51.088;6.572;2023-04-25T13:59:04;14.40;99.90
28075;DHT22;15385;51.088;6.572;2023-04-25T14:01:35;14.30;99.90
28075;DHT22;15385;51.088;6.572;2023-04-25T14:04:06;14.10;99.90
28075;DHT22;15385;51.088;6.572;2023-04-25T14:06:36;14.00;99.90
28075;DHT22;15385;51.088;6.572;2023-04-25T14:09:07;13.80;99.90
28075;DHT22;15385;51.088;6.572;2023-04-25T14:11:40;13.70;99.90
28075;DHT22;15385;51.088;6.572;2023-04-25T14:14:11;13.70;99.90
28075;DHT22;15385;51.088;6.572;2023-04-25T14:16:42;13.70;99.90
28075;DHT22;15385;51.088;6.572;2023-04-25T14:19:13;13.80;99.90
28075;DHT22;15385;51.088;6.572;2023-04-25T14:21:44;13.90;99.90
28075;DHT22;15385;51.088;6.572;2023-04-25T14:24:15;13.90;99.90
28075;DHT22;15385;51.088;6.572;2023-04-25T14:26:46;13.90;99.90
28075;DHT22;15385;51.088;6.572;2023-04-25T14:29:16;14.20;99.90
28075;DHT22;15385;51.088;6.572;2023-04-25T14:31:47;14.70;99.90
28075;DHT22;15385;51.088;6.572;2023-04-25T14:34:17;15.30;99.90
28075;DHT22;15385;51.088;6.572;2023-04-25T14:36:48;15.80;99.90
28075;DHT22;15385;51.088;6.572;2023-04-25T14:39:19;16.10;99.90
28075;DHT22;15385;51.088;6.572;2023-04-25T14:41:50;16.40;99.90
28075;DHT22;15385;51.088;6.572;2023-04-25T14:44:21;16.50;99.90
28075;DHT22;15385;51.088;6.572;2023-04-25T14:46:51;16.50;99.90
28075;DHT22;15385;51.088;6.572;2023-04-25T14:49:22;16.40;99.90
28075;DHT22;15385;51.088;6.572;2023-04-25T14:51:52;16.60;99.90
28075;DHT22;15385;51.088;6.572;2023-04-25T14:54:23;16.80;99.90
28075;DHT22;15385;51.088;6.572;2023-04-25T14:56:54;16.90;99.90
28075;DHT22;15385;51.088;6.572;2023-04-25T14:59:24;16.90;99.90
28075;DHT22;15385;51.088;6.572;2023-04-25T15:01:55;17.00;99.90
28075;DHT22;15385;51.088;6.572;2023-04-25T15:04:27;17.10;99.90
28075;DHT22;15385;51.088;6.572;2023-04-25T15:06:57;17.00;99.90
28075;DHT22;15385;51.088;6.572;2023-04-25T15:09:29;16.50;99.90
28075;DHT22;15385;51.088;6.572;2023-04-25T15:12:00;15.80;99.90
28075;DHT22;15385;51.088;6.572;2023-04-25T15:14:31;15.40;99.90
28075;DHT22;15385;51.088;6.572;2023-04-25T15:17:01;15.10;99.90
28075;DHT22;15385;51.088;6.572;2023-04-25T15:19:32;15.00;99.90
28075;DHT22;15385;51.088;6.572;2023-04-25T15:22:03;15.10;99.90
28075;DHT22;15385;51.088;6.572;2023-04-25T15:24:34;15.20;99.90
28075;DHT22;15385;51.088;6.572;2023-04-25T15:27:04;15.20;99.90
28075;DHT22;15385;51.088;6.572;2023-04-25T15:29:35;15.20;99.90
28075;DHT22;15385;51.088;6.572;2023-04-25T15:32:06;15.30;99.90
28075;DHT22;15385;51.088;6.572;2023-04-25T15:34:36;15.80;99.90
28075;DHT22;15385;51.088;6.572;2023-04-25T15:37:07;16.30;99.90
28075;DHT22;15385;51.088;6.572;2023-04-25T15:39:37;16.70;99.90
28075;DHT22;15385;51.088;6.572;2023-04-25T15:42:08;16.90;99.90
28075;DHT22;15385;51.088;6.572;2023-04-25T15:44:39;16.70;99.90
28075;DHT22;15385;51.088;6.572;2023-04-25T15:47:09;16.50;99.90
28075;DHT22;15385;51.088;6.572;2023-04-25T15:49:40;16.40;99.90
28075;DHT22;15385;51.088;6.572;2023-04-25T15:52:10;16.20;99.90
28075;DHT22;15385;51.088;6.572;2023-04-25T15:54:41;15.80;99.90
28075;DHT22;15385;51.088;6.572;2023-04-25T15:57:11;15.50;99.90
28075;DHT22;15385;51.088;6.572;2023-04-25T15:59:42;15.30;99.90
28075;DHT22;15385;51.088;6.572;2023-04-25T16:02:13;15.10;99.90
28075;DHT22;15385;51.088;6.572;2023-04-25T16:04:45;14.90;99.90
28075;DHT22;15385;51.088;6.572;2023-04-25T16:07:16;14.90;99.90
28075;DHT22;15385;51.088;6.572;2023-04-25T16:09:47;14.90;99.90
28075;DHT22;15385;51.088;6.572;2023-04-25T16:12:18;14.80;99.90